Time;durP1;ratioP1;P1;durP2;ratioP2;P2;SDS_P1;SDS_P2;PMS_P1;PMS_P2;Temp;Humidity;BMP_temperature;BMP_pressure;BME280_temperature;BME280_humidity;BME280_pressure;Samples;Min_cycle;Max_cycle;Signal;HPM_P1;HPM_P2
2022/01/07 00:00:06;;;;;;;26.35;7.50;;;1.50;99.90;;;;;;5095093;28;20115;-88
2022/01/07 00:02:33;;;;;;;27.63;6.22;;;1.60;99.90;;;;;;5090171;28;20517;-89
2022/01/07 00:05:01;;;;;;;30.10;6.22;;;1.60;99.90;;;;;;5094499;28;20036;-88
2022/01/07 00:07:27;;;;;;;19.20;6.63;;;1.60;99.90;;;;;;5093007;28;20020;-89
2022/01/07 00:09:52;;;;;;;25.17;6.80;;;1.60;99.90;;;;;;5090950;28;20031;-90
2022/01/07 00:12:25;;;;;;;28.50;5.65;;;1.60;99.90;;;;;;5095138;28;20023;-90
2022/01/07 00:14:50;;;;;;;19.27;6.00;;;1.60;99.90;;;;;;5095028;28;20027;-89
2022/01/07 00:17:16;;;;;;;16.80;5.07;;;1.60;99.90;;;;;;5113398;28;20344;-89
2022/01/07 00:19:50;;;;;;;15.70;5.28;;;1.50;99.90;;;;;;5112960;28;20031;-89
2022/01/07 00:22:15;;;;;;;30.83;8.05;;;1.50;99.90;;;;;;5113212;28;20023;-89
2022/01/07 00:24:41;;;;;;;26.55;6.80;;;1.50;99.90;;;;;;5094900;28;20379;-89
2022/01/07 00:27:18;;;;;;;22.33;7.97;;;1.40;99.90;;;;;;5110995;28;20028;-89
2022/01/07 00:29:43;;;;;;;20.67;6.15;;;1.40;99.90;;;;;;5074563;28;20480;-89
2022/01/07 00:32:09;;;;;;;27.73;7.07;;;1.30;99.90;;;;;;5092695;28;20032;-89
2022/01/07 00:34:41;;;;;;;21.90;6.75;;;1.30;99.90;;;;;;5092674;28;20032;-89
2022/01/07 00:37:06;;;;;;;23.08;6.72;;;1.30;99.90;;;;;;5092810;28;20063;-89
2022/01/07 00:39:50;;;;;;;39.40;8.55;;;1.20;99.90;;;;;;5092407;28;20060;-90
2022/01/07 00:42:16;;;;;;;25.88;7.35;;;1.20;99.90;;;;;;5092281;28;20016;-89
2022/01/07 00:44:41;;;;;;;34.10;7.75;;;1.20;99.90;;;;;;5098134;28;20015;-90
2022/01/07 00:47:22;;;;;;;24.40;7.20;;;1.20;99.90;;;;;;5113121;28;20015;-90
2022/01/07 00:49:48;;;;;;;29.75;8.57;;;1.10;99.90;;;;;;5097486;28;20020;-91
2022/01/07 00:52:13;;;;;;;25.45;7.78;;;1.20;99.90;;;;;;5093078;28;20016;-91
2022/01/07 00:54:41;;;;;;;25.00;6.72;;;1.20;99.90;;;;;;5092774;28;20077;-91
2022/01/07 00:57:06;;;;;;;35.97;7.35;;;1.40;99.90;;;;;;5092165;28;20082;-91
2022/01/07 00:59:32;;;;;;;28.65;6.93;;;1.40;99.90;;;;;;5092603;28;20020;-90
2022/01/07 01:02:01;;;;;;;23.77;7.40;;;1.40;99.90;;;;;;5074518;28;20024;-90
2022/01/07 01:04:31;;;;;;;32.08;7.47;;;1.40;99.90;;;;;;5093455;28;20084;-89
2022/01/07 01:06:56;;;;;;;22.30;6.05;;;1.30;99.90;;;;;;5094705;28;20020;-90
2022/01/07 01:09:22;;;;;;;23.25;6.32;;;1.30;99.90;;;;;;5094911;28;20020;-89
2022/01/07 01:12:41;;;;;;;19.58;6.25;;;1.30;99.90;;;;;;5092961;28;20054;-90
2022/01/07 01:15:09;;;;;;;25.45;7.30;;;1.30;99.90;;;;;;5098430;28;20391;-91
2022/01/07 01:17:35;;;;;;;23.40;6.00;;;1.20;99.90;;;;;;5116442;28;20106;-90
2022/01/07 01:20:07;;;;;;;21.40;6.45;;;1.20;99.90;;;;;;5097891;28;20186;-89
2022/01/07 01:22:33;;;;;;;19.70;5.75;;;1.10;99.90;;;;;;5097970;28;20020;-91
2022/01/07 01:25:17;;;;;;;12.88;5.78;;;1.10;99.90;;;;;;5098217;28;20103;-89
2022/01/07 01:27:43;;;;;;;18.33;6.78;;;1.00;99.90;;;;;;5097745;28;20383;-89
2022/01/07 01:30:12;;;;;;;16.25;5.75;;;1.10;99.90;;;;;;5116174;28;20023;-89
2022/01/07 01:33:07;;;;;;;18.98;6.13;;;1.00;99.90;;;;;;5116056;28;20077;-89
2022/01/07 01:35:37;;;;;;;15.17;6.57;;;1.00;99.90;;;;;;5097892;28;20030;-89
2022/01/07 01:38:02;;;;;;;17.73;6.88;;;1.00;99.90;;;;;;5116085;28;20429;-89
2022/01/07 01:40:28;;;;;;;21.13;6.82;;;0.90;99.90;;;;;;5115912;28;20414;-89
2022/01/07 01:42:54;;;;;;;19.63;6.57;;;0.90;99.90;;;;;;5115746;28;20095;-89
2022/01/07 01:45:21;;;;;;;29.55;7.18;;;0.80;99.90;;;;;;5115769;28;20049;-88
2022/01/07 01:47:51;;;;;;;29.60;7.90;;;0.80;99.90;;;;;;5097728;28;20019;-89
2022/01/07 01:50:17;;;;;;;21.70;7.00;;;0.70;99.90;;;;;;5115703;28;20023;-90
2022/01/07 01:52:50;;;;;;;20.88;7.40;;;0.60;99.90;;;;;;5115528;28;20099;-89
2022/01/07 01:55:26;;;;;;;19.75;6.43;;;0.60;99.90;;;;;;5097509;28;20031;-89
2022/01/07 01:57:52;;;;;;;17.15;6.60;;;0.50;99.90;;;;;;5115447;28;20069;-89
2022/01/07 02:00:20;;;;;;;16.08;6.45;;;0.50;99.90;;;;;;5115649;28;20023;-89
2022/01/07 02:02:55;;;;;;;31.92;7.75;;;0.50;99.90;;;;;;5097328;28;20080;-90
2022/01/07 02:05:22;;;;;;;23.80;8.68;;;0.50;99.90;;;;;;5115376;28;20065;-90
2022/01/07 02:07:48;;;;;;;24.15;9.07;;;0.50;99.90;;;;;;5097358;28;20479;-88
2022/01/07 02:10:16;;;;;;;29.73;9.00;;;0.50;99.90;;;;;;5115523;28;20076;-90
2022/01/07 02:12:43;;;;;;;20.95;7.78;;;0.60;99.90;;;;;;5115227;28;20125;-90
2022/01/07 02:15:10;;;;;;;30.40;10.32;;;0.50;99.90;;;;;;5096952;28;20027;-89
2022/01/07 02:17:40;;;;;;;26.67;9.38;;;0.50;99.90;;;;;;5096896;28;20487;-90
2022/01/07 02:20:07;;;;;;;24.77;10.07;;;0.60;99.90;;;;;;5115296;28;20047;-89
2022/01/07 02:22:38;;;;;;;34.22;9.48;;;0.60;99.90;;;;;;5096349;28;20015;-89
2022/01/07 02:25:04;;;;;;;25.50;8.30;;;0.60;99.90;;;;;;5096476;28;20030;-90
2022/01/07 02:27:34;;;;;;;37.53;10.85;;;0.60;99.90;;;;;;5114929;28;20460;-90
2022/01/07 02:30:10;;;;;;;22.73;9.38;;;0.70;99.90;;;;;;5096554;28;20022;-90
2022/01/07 02:32:36;;;;;;;23.65;8.07;;;0.70;99.90;;;;;;5114340;28;20035;-89
2022/01/07 02:35:05;;;;;;;30.65;9.23;;;0.70;99.90;;;;;;5115139;28;20424;-90
2022/01/07 02:37:30;;;;;;;27.23;9.77;;;0.70;99.90;;;;;;5114981;28;20054;-90
2022/01/07 02:39:56;;;;;;;26.85;8.73;;;0.60;99.90;;;;;;5096635;28;20486;-90
2022/01/07 02:42:25;;;;;;;27.02;9.18;;;0.60;99.90;;;;;;5114631;28;20052;-90
2022/01/07 02:44:51;;;;;;;29.25;9.82;;;0.60;99.90;;;;;;5114221;28;20011;-88
2022/01/07 02:47:42;;;;;;;25.08;9.18;;;0.60;99.90;;;;;;5096329;28;20074;-89
2022/01/07 02:50:08;;;;;;;34.90;10.75;;;0.50;99.90;;;;;;5114706;28;20099;-91
2022/01/07 02:52:34;;;;;;;36.45;11.07;;;0.60;99.90;;;;;;5096362;28;20081;-90
2022/01/07 02:55:05;;;;;;;39.30;10.82;;;0.60;99.90;;;;;;5114463;28;20019;-89
2022/01/07 02:57:31;;;;;;;26.83;10.68;;;0.60;99.90;;;;;;5096054;28;20039;-89
2022/01/07 02:59:56;;;;;;;34.80;10.85;;;0.70;99.90;;;;;;5096309;28;20024;-89
2022/01/07 03:02:41;;;;;;;28.08;9.65;;;0.70;99.90;;;;;;5114319;28;20066;-89
2022/01/07 03:05:06;;;;;;;24.25;9.77;;;0.70;99.90;;;;;;5114625;28;20066;-91
2022/01/07 03:07:33;;;;;;;36.35;10.68;;;0.70;99.90;;;;;;5096433;28;20015;-90
2022/01/07 03:10:31;;;;;;;30.30;9.90;;;0.80;99.90;;;;;;5096207;28;20051;-90
2022/01/07 03:12:59;;;;;;;33.85;11.88;;;0.90;99.90;;;;;;5096514;28;20491;-89
2022/01/07 03:15:24;;;;;;;31.20;9.90;;;0.90;99.90;;;;;;5114306;28;20016;-90
2022/01/07 03:17:52;;;;;;;30.85;10.13;;;0.90;99.90;;;;;;5114297;28;20068;-90
2022/01/07 03:20:19;;;;;;;26.30;9.57;;;0.90;99.90;;;;;;5113974;28;20028;-89
2022/01/07 03:22:47;;;;;;;28.05;9.32;;;0.90;99.90;;;;;;5114222;28;20368;-90
2022/01/07 03:25:39;;;;;;;42.17;12.07;;;0.90;99.90;;;;;;5114061;28;20106;-89
2022/01/07 03:28:04;;;;;;;32.00;9.98;;;0.90;99.90;;;;;;5113969;28;20412;-88
2022/01/07 03:30:30;;;;;;;31.38;9.68;;;0.90;99.90;;;;;;5114026;28;20032;-90
2022/01/07 03:32:58;;;;;;;25.48;9.40;;;0.90;99.90;;;;;;5113646;28;20486;-89
2022/01/07 03:35:24;;;;;;;32.50;9.32;;;0.90;99.90;;;;;;5095950;28;20050;-90
2022/01/07 03:37:49;;;;;;;31.88;9.80;;;1.00;99.90;;;;;;5113061;28;20027;-89
2022/01/07 03:40:16;;;;;;;33.25;9.07;;;1.00;99.90;;;;;;5095469;28;20032;-90
2022/01/07 03:42:42;;;;;;;32.80;10.35;;;1.00;99.90;;;;;;5113485;28;20458;-89
2022/01/07 03:45:09;;;;;;;31.15;10.05;;;1.00;99.90;;;;;;5113795;28;20024;-88
2022/01/07 03:47:34;;;;;;;29.30;9.80;;;1.00;99.90;;;;;;5113445;28;20023;-88
2022/01/07 03:50:00;;;;;;;29.15;9.48;;;1.00;99.90;;;;;;5113560;28;20024;-89
2022/01/07 03:52:33;;;;;;;29.23;9.68;;;1.00;99.90;;;;;;5113554;28;20031;-89
2022/01/07 03:54:59;;;;;;;21.33;8.85;;;1.00;99.90;;;;;;5084813;28;20039;-88
2022/01/07 03:57:24;;;;;;;26.73;8.05;;;1.00;99.90;;;;;;5094972;28;20027;-88
2022/01/07 03:59:55;;;;;;;32.80;9.95;;;1.10;99.90;;;;;;5113322;28;20051;-89
2022/01/07 04:02:21;;;;;;;25.63;8.95;;;1.10;99.90;;;;;;5113135;28;20023;-91
2022/01/07 04:04:46;;;;;;;37.20;9.68;;;1.00;99.90;;;;;;5112827;28;20043;-89
2022/01/07 04:07:17;;;;;;;32.42;9.88;;;1.10;99.90;;;;;;5113442;28;20031;-89
2022/01/07 04:09:43;;;;;;;27.52;8.98;;;1.10;99.90;;;;;;5095454;28;20024;-88
2022/01/07 04:12:09;;;;;;;28.88;9.48;;;1.20;99.90;;;;;;5112906;28;20459;-89
2022/01/07 04:15:16;;;;;;;23.40;7.60;;;1.20;99.90;;;;;;5095105;28;20073;-89
2022/01/07 04:17:44;;;;;;;25.40;7.90;;;1.20;99.90;;;;;;5112726;28;20050;-89
2022/01/07 04:20:13;;;;;;;30.80;10.85;;;1.20;99.90;;;;;;5113040;28;20354;-89
2022/01/07 04:22:39;;;;;;;17.90;6.93;;;1.30;99.90;;;;;;5113014;28;20019;-89
2022/01/07 04:25:08;;;;;;;23.30;7.30;;;1.30;99.90;;;;;;5113061;28;20026;-89
2022/01/07 04:28:05;;;;;;;22.63;6.43;;;1.30;99.90;;;;;;5112918;28;20012;-89
2022/01/07 04:30:48;;;;;;;24.30;8.63;;;1.40;99.90;;;;;;5053332;28;20025;-89
2022/01/07 04:33:21;;;;;;;18.50;7.03;;;1.40;99.90;;;;;;5070304;28;20035;-88
2022/01/07 04:35:58;;;;;;;22.58;6.82;;;1.40;99.90;;;;;;5070520;28;20039;-88
2022/01/07 04:38:26;;;;;;;17.20;6.72;;;1.50;99.90;;;;;;5070369;28;20038;-88
2022/01/07 04:40:51;;;;;;;20.98;6.80;;;1.40;99.90;;;;;;5069849;28;20043;-88
2022/01/07 04:43:26;;;;;;;30.00;7.25;;;1.50;99.90;;;;;;5070179;28;20103;-89
2022/01/07 04:45:51;;;;;;;28.38;7.60;;;1.50;99.90;;;;;;5040748;28;20028;-88
2022/01/07 04:48:18;;;;;;;35.50;7.45;;;1.60;99.90;;;;;;5081859;28;20035;-88
2022/01/07 04:50:45;;;;;;;27.02;7.95;;;1.50;99.90;;;;;;5117017;28;20026;-88
2022/01/07 04:53:11;;;;;;;26.50;7.45;;;1.60;99.90;;;;;;5095638;28;20034;-89
2022/01/07 04:55:44;;;;;;;21.88;6.75;;;1.60;99.90;;;;;;5116422;28;20027;-88
2022/01/07 04:58:14;;;;;;;28.17;8.25;;;1.60;99.90;;;;;;5103885;28;20024;-89
2022/01/07 05:00:42;;;;;;;35.30;7.47;;;1.60;99.90;;;;;;5105323;28;20421;-87
2022/01/07 05:03:10;;;;;;;19.58;6.50;;;1.60;99.90;;;;;;5116817;28;20020;-88
2022/01/07 05:05:36;;;;;;;15.60;6.50;;;1.70;99.90;;;;;;5116407;28;20043;-88
2022/01/07 05:08:03;;;;;;;25.83;7.20;;;1.60;99.90;;;;;;5116876;28;20525;-88
2022/01/07 05:10:34;;;;;;;29.92;8.57;;;1.70;99.90;;;;;;5097937;28;20032;-88
2022/01/07 05:12:59;;;;;;;37.90;8.48;;;1.70;99.90;;;;;;5098315;28;20019;-90
2022/01/07 05:15:25;;;;;;;31.33;7.57;;;1.70;99.90;;;;;;5098036;28;20329;-86
2022/01/07 05:18:16;;;;;;;21.77;7.80;;;1.80;99.90;;;;;;5098461;28;20059;-88
2022/01/07 05:20:41;;;;;;;24.30;7.20;;;1.80;99.90;;;;;;5097942;28;20558;-89
2022/01/07 05:23:09;;;;;;;24.90;7.20;;;1.80;99.90;;;;;;5098003;28;20111;-87
2022/01/07 05:25:35;;;;;;;20.48;7.22;;;1.90;99.90;;;;;;5115866;28;20024;-89
2022/01/07 05:28:05;;;;;;;31.50;7.90;;;1.90;99.90;;;;;;5116505;28;20037;-88
2022/01/07 05:30:31;;;;;;;31.25;8.50;;;1.80;99.90;;;;;;5115927;28;20026;-88
2022/01/07 05:32:57;;;;;;;26.20;7.15;;;1.80;99.90;;;;;;5097324;28;20110;-88
2022/01/07 05:35:25;;;;;;;27.70;7.68;;;1.80;99.90;;;;;;5116395;28;20551;-87
2022/01/07 05:37:57;;;;;;;27.15;8.43;;;1.80;99.90;;;;;;5116275;28;20022;-89
2022/01/07 05:40:23;;;;;;;28.50;8.23;;;1.70;99.90;;;;;;5115744;28;20364;-88
2022/01/07 05:42:48;;;;;;;31.00;7.63;;;1.70;99.90;;;;;;5097383;28;20073;-88
2022/01/07 05:45:15;;;;;;;28.88;7.93;;;1.70;99.90;;;;;;5115945;28;20015;-90
2022/01/07 05:47:41;;;;;;;33.75;8.73;;;1.70;99.90;;;;;;5115891;28;20020;-91
2022/01/07 05:50:07;;;;;;;23.98;7.53;;;1.70;99.90;;;;;;5116029;28;20624;-88
2022/01/07 05:52:35;;;;;;;31.67;9.18;;;1.70;99.90;;;;;;5097183;28;20130;-89
2022/01/07 05:55:00;;;;;;;33.03;8.18;;;1.80;99.90;;;;;;5115832;28;20024;-87
2022/01/07 05:57:27;;;;;;;30.58;9.00;;;1.70;99.90;;;;;;5115519;28;20027;-88
2022/01/07 05:59:53;;;;;;;35.13;8.10;;;1.70;99.90;;;;;;5114762;28;20020;-88
2022/01/07 06:02:19;;;;;;;20.30;7.43;;;1.70;99.90;;;;;;5097085;28;20020;-88
2022/01/07 06:04:44;;;;;;;24.27;7.70;;;1.70;99.90;;;;;;5097180;28;20044;-88
2022/01/07 06:07:14;;;;;;;25.77;7.90;;;1.70;99.90;;;;;;5097016;28;20016;-87
2022/01/07 06:09:42;;;;;;;25.52;7.53;;;1.70;99.90;;;;;;5115535;28;20023;-88
2022/01/07 06:12:09;;;;;;;18.77;7.15;;;1.70;99.90;;;;;;5086725;28;20387;-88
2022/01/07 06:14:39;;;;;;;31.63;8.35;;;1.70;99.90;;;;;;5097249;28;20429;-90
2022/01/07 06:17:08;;;;;;;21.98;6.95;;;1.70;99.90;;;;;;5097007;28;20063;-89
2022/01/07 06:19:34;;;;;;;27.52;8.32;;;1.80;99.90;;;;;;5074828;28;20056;-90
2022/01/07 06:22:00;;;;;;;28.63;7.05;;;1.90;99.90;;;;;;5074370;28;20057;-87
2022/01/07 06:24:25;;;;;;;27.70;7.72;;;1.80;99.90;;;;;;5090261;28;20051;-88
2022/01/07 06:26:51;;;;;;;15.48;7.20;;;1.80;99.90;;;;;;5079476;28;20012;-88
2022/01/07 06:29:16;;;;;;;18.10;6.57;;;1.80;99.90;;;;;;5114446;28;20098;-88
2022/01/07 06:31:42;;;;;;;20.20;7.18;;;1.70;99.90;;;;;;5114081;28;20077;-88
2022/01/07 06:34:07;;;;;;;28.23;8.98;;;1.70;99.90;;;;;;5095076;28;20070;-88
2022/01/07 06:36:33;;;;;;;18.65;6.80;;;1.80;99.90;;;;;;5114499;28;20032;-89
2022/01/07 06:38:59;;;;;;;22.42;7.22;;;1.80;99.90;;;;;;5096241;28;20027;-88
2022/01/07 06:41:25;;;;;;;24.88;8.20;;;1.70;99.90;;;;;;5106644;28;20028;-88
2022/01/07 06:43:50;;;;;;;26.20;7.57;;;1.70;99.90;;;;;;5109481;28;20023;-89
2022/01/07 06:46:16;;;;;;;26.17;7.93;;;1.70;99.90;;;;;;5093782;28;20020;-88
2022/01/07 06:48:41;;;;;;;24.73;7.47;;;1.80;99.90;;;;;;5093587;28;20020;-89
2022/01/07 06:51:07;;;;;;;28.10;7.15;;;1.80;99.90;;;;;;5093848;28;20028;-90
2022/01/07 06:53:33;;;;;;;19.63;6.45;;;1.90;99.90;;;;;;5092598;28;20376;-87
2022/01/07 06:55:59;;;;;;;23.88;7.30;;;1.90;99.90;;;;;;5095302;28;20023;-88
2022/01/07 06:58:26;;;;;;;23.10;7.07;;;1.80;99.90;;;;;;5114144;28;20041;-89
2022/01/07 07:00:51;;;;;;;20.75;7.82;;;1.90;99.90;;;;;;5094827;28;20020;-88
2022/01/07 07:03:17;;;;;;;23.27;7.60;;;1.90;99.90;;;;;;5105141;28;20027;-90
2022/01/07 07:05:42;;;;;;;26.35;8.32;;;1.90;99.90;;;;;;5113761;28;20039;-87
2022/01/07 07:08:08;;;;;;;29.80;7.78;;;1.90;99.90;;;;;;5094801;28;20020;-88
2022/01/07 07:10:34;;;;;;;25.63;7.15;;;1.80;99.90;;;;;;5113384;28;20077;-87
2022/01/07 07:12:59;;;;;;;21.10;7.10;;;1.80;99.90;;;;;;5110269;28;20039;-90
2022/01/07 07:15:25;;;;;;;21.13;7.40;;;1.90;99.90;;;;;;5113386;28;20043;-87
2022/01/07 07:17:51;;;;;;;15.90;6.97;;;1.90;99.90;;;;;;5095363;28;20034;-88
2022/01/07 07:20:16;;;;;;;26.55;7.15;;;1.90;99.90;;;;;;5112661;28;20122;-87
2022/01/07 07:22:42;;;;;;;20.08;7.95;;;1.90;99.90;;;;;;5111585;28;20035;-88
2022/01/07 07:25:09;;;;;;;19.65;7.55;;;1.90;99.90;;;;;;5113082;28;20035;-87
2022/01/07 07:27:36;;;;;;;35.53;8.82;;;1.90;99.90;;;;;;5095277;28;20387;-88
2022/01/07 07:30:07;;;;;;;23.50;7.28;;;1.90;99.90;;;;;;5113391;28;20026;-87
2022/01/07 07:32:33;;;;;;;23.77;7.97;;;1.90;99.90;;;;;;5093164;28;20073;-88
2022/01/07 07:35:03;;;;;;;24.73;8.35;;;1.90;99.90;;;;;;5113322;28;20506;-87
2022/01/07 07:37:28;;;;;;;27.65;8.27;;;1.90;99.90;;;;;;5113193;28;20019;-88
2022/01/07 07:39:54;;;;;;;23.00;8.80;;;1.90;99.90;;;;;;5110965;28;20357;-88
2022/01/07 07:42:21;;;;;;;24.00;9.18;;;1.90;99.90;;;;;;5112978;28;20032;-87
2022/01/07 07:44:47;;;;;;;29.33;9.50;;;1.90;99.90;;;;;;5102573;28;20027;-87
2022/01/07 07:47:13;;;;;;;23.35;9.50;;;2.00;99.90;;;;;;5103811;28;20027;-90
2022/01/07 07:49:39;;;;;;;27.10;8.13;;;2.00;99.90;;;;;;5086885;28;20538;-87
2022/01/07 07:52:05;;;;;;;17.90;7.55;;;2.00;99.90;;;;;;5094476;28;20123;-87
2022/01/07 07:54:30;;;;;;;24.25;8.80;;;1.90;99.90;;;;;;5113192;28;20102;-88
2022/01/07 07:56:58;;;;;;;35.75;8.90;;;1.90;99.90;;;;;;5112755;28;20059;-88
2022/01/07 07:59:24;;;;;;;20.00;7.47;;;2.00;99.90;;;;;;5102365;28;20118;-88
2022/01/07 08:01:50;;;;;;;27.00;8.23;;;2.00;99.90;;;;;;5092577;28;20020;-89
2022/01/07 08:04:18;;;;;;;24.73;8.80;;;2.00;99.90;;;;;;5079515;28;20042;-88
2022/01/07 08:06:44;;;;;;;31.67;9.10;;;2.00;99.90;;;;;;5109096;28;20073;-88
2022/01/07 08:09:11;;;;;;;20.55;8.07;;;2.10;99.90;;;;;;5084372;28;20423;-87
2022/01/07 08:11:48;;;;;;;24.77;9.13;;;2.00;99.90;;;;;;5096393;28;20020;-86
2022/01/07 08:16:59;;;;;;;17.85;8.77;;;2.00;99.90;;;;;;5112684;28;20030;-89
2022/01/07 08:19:25;;;;;;;29.40;7.95;;;2.00;99.90;;;;;;5087949;28;20048;-88
2022/01/07 08:21:51;;;;;;;24.90;7.80;;;2.00;99.90;;;;;;5097532;28;20397;-88
2022/01/07 08:24:16;;;;;;;24.77;7.90;;;2.00;99.90;;;;;;5089215;28;20110;-88
2022/01/07 08:26:43;;;;;;;23.25;8.57;;;2.00;99.90;;;;;;5093572;28;20055;-88
2022/01/07 08:29:11;;;;;;;25.98;7.47;;;2.00;99.90;;;;;;5101394;28;20482;-89
2022/01/07 08:36:49;;;;;;;22.63;6.97;;;2.00;99.90;;;;;;5111892;28;20383;-89
2022/01/07 08:39:15;;;;;;;17.08;7.03;;;2.00;99.90;;;;;;5081733;28;20031;-88
2022/01/07 08:41:42;;;;;;;18.58;7.57;;;2.00;99.90;;;;;;5090731;28;20032;-87
2022/01/07 08:44:09;;;;;;;26.10;7.47;;;2.10;99.90;;;;;;5076431;28;20013;-88
2022/01/07 08:46:36;;;;;;;15.30;8.05;;;2.00;99.90;;;;;;5093329;28;20027;-87
2022/01/07 08:49:04;;;;;;;17.83;7.20;;;2.00;99.90;;;;;;5086485;28;20365;-89
2022/01/07 08:51:30;;;;;;;14.80;6.53;;;2.00;99.90;;;;;;5124054;28;20032;-88
2022/01/07 08:53:56;;;;;;;21.23;6.93;;;2.10;99.90;;;;;;5103141;28;20038;-89
2022/01/07 08:56:23;;;;;;;23.17;7.32;;;2.10;99.90;;;;;;5110719;28;20096;-89
2022/01/07 08:58:54;;;;;;;18.77;6.63;;;2.10;99.90;;;;;;5061987;28;20016;-89
2022/01/07 09:01:21;;;;;;;24.05;7.95;;;2.10;99.90;;;;;;5109356;28;20064;-89
2022/01/07 09:03:47;;;;;;;19.73;7.05;;;2.10;99.90;;;;;;5110310;28;20433;-89
2022/01/07 09:06:13;;;;;;;19.42;7.80;;;2.20;99.90;;;;;;5111720;28;20023;-87
2022/01/07 09:08:38;;;;;;;21.70;9.43;;;2.10;99.90;;;;;;5093677;28;20378;-88
2022/01/07 09:11:04;;;;;;;19.55;7.22;;;2.00;99.90;;;;;;5109106;28;20019;-87
2022/01/07 09:13:30;;;;;;;22.23;7.18;;;2.10;99.90;;;;;;5112051;28;20028;-90
2022/01/07 09:15:55;;;;;;;18.05;7.47;;;2.00;99.90;;;;;;5112099;28;20495;-88
2022/01/07 09:18:22;;;;;;;26.50;8.15;;;2.00;99.90;;;;;;5092030;28;20510;-87
2022/01/07 09:20:49;;;;;;;25.80;8.07;;;2.00;99.90;;;;;;5111212;28;20040;-87
2022/01/07 09:23:15;;;;;;;19.98;7.70;;;2.00;99.90;;;;;;5111427;28;20024;-88
2022/01/07 09:25:41;;;;;;;20.10;8.07;;;2.00;99.90;;;;;;5111488;28;20032;-87
2022/01/07 09:28:08;;;;;;;23.13;7.97;;;2.00;99.90;;;;;;5112635;28;20038;-89
2022/01/07 09:30:36;;;;;;;17.95;7.05;;;2.10;99.90;;;;;;5106458;28;20028;-89
2022/01/07 09:33:03;;;;;;;17.45;7.15;;;2.10;99.90;;;;;;5111400;28;20038;-86
2022/01/07 09:35:28;;;;;;;14.27;6.78;;;2.00;99.90;;;;;;5112953;28;20024;-87
2022/01/07 09:37:54;;;;;;;15.48;6.72;;;2.10;99.90;;;;;;5091696;28;20088;-89
2022/01/07 09:40:21;;;;;;;16.15;6.00;;;2.10;99.90;;;;;;5076214;28;20023;-87
2022/01/07 09:42:54;;;;;;;14.70;5.80;;;2.10;99.90;;;;;;5092570;28;20020;-88
2022/01/07 09:45:22;;;;;;;15.93;7.07;;;2.10;99.90;;;;;;5096170;28;20061;-88
2022/01/07 09:47:48;;;;;;;17.30;7.88;;;2.00;99.90;;;;;;5098468;28;20049;-88
2022/01/07 09:50:13;;;;;;;17.13;7.22;;;2.10;99.90;;;;;;5115240;28;20055;-90
2022/01/07 09:52:39;;;;;;;17.65;7.13;;;2.10;99.90;;;;;;5113963;28;20103;-87
2022/01/07 09:55:05;;;;;;;19.05;7.32;;;2.10;99.90;;;;;;5114478;28;20062;-89
2022/01/07 09:57:31;;;;;;;14.18;6.43;;;2.10;99.90;;;;;;5125629;27;20384;-88
2022/01/07 09:59:57;;;;;;;16.73;6.43;;;2.20;99.90;;;;;;5096019;28;20016;-87
2022/01/07 10:02:23;;;;;;;10.73;5.80;;;2.00;99.90;;;;;;5114477;28;20144;-88
2022/01/07 10:04:49;;;;;;;14.45;5.45;;;2.10;99.90;;;;;;5114199;28;20032;-88
2022/01/07 10:07:25;;;;;;;11.80;5.65;;;2.10;99.90;;;;;;5098874;28;20028;-89
2022/01/07 10:10:02;;;;;;;15.38;6.47;;;2.10;99.90;;;;;;5109585;28;20422;-88
2022/01/07 10:12:31;;;;;;;20.50;5.90;;;2.10;99.90;;;;;;5113603;28;20042;-87
2022/01/07 10:15:20;;;;;;;8.00;4.72;;;2.20;99.90;;;;;;5114189;28;20111;-87
2022/01/07 10:18:09;;;;;;;10.07;5.57;;;2.20;99.90;;;;;;5113120;28;20035;-88
2022/01/07 10:20:41;;;;;;;13.70;5.57;;;2.20;99.90;;;;;;5114217;27;20475;-87
2022/01/07 10:23:09;;;;;;;10.05;5.25;;;2.20;99.90;;;;;;5103396;28;20028;-87
2022/01/07 10:25:40;;;;;;;12.50;5.57;;;2.20;99.90;;;;;;5113434;28;20020;-88
2022/01/07 10:28:10;;;;;;;12.02;5.50;;;2.20;99.90;;;;;;5096101;28;20410;-87
2022/01/07 10:30:44;;;;;;;11.27;5.40;;;2.30;99.90;;;;;;5107950;28;20024;-87
2022/01/07 10:33:21;;;;;;;9.52;4.97;;;2.30;99.90;;;;;;5098003;28;20027;-87
2022/01/07 10:35:53;;;;;;;10.70;5.75;;;2.30;99.90;;;;;;5094215;28;20027;-88
2022/01/07 10:38:21;;;;;;;8.02;4.65;;;2.30;99.90;;;;;;5093918;28;20490;-88
2022/01/07 10:40:49;;;;;;;8.43;4.65;;;2.40;99.90;;;;;;5075395;28;20027;-88
2022/01/07 10:43:22;;;;;;;17.92;5.00;;;2.40;99.90;;;;;;5093363;28;20110;-88
2022/01/07 10:45:50;;;;;;;8.02;4.03;;;2.40;99.90;;;;;;5108239;28;20187;-88
2022/01/07 10:48:18;;;;;;;10.57;4.63;;;2.50;99.90;;;;;;5075289;28;20027;-90
2022/01/07 10:50:52;;;;;;;6.35;4.00;;;2.50;99.90;;;;;;5093536;28;20038;-88
2022/01/07 10:53:18;;;;;;;6.70;4.32;;;2.50;99.90;;;;;;5093188;28;20068;-86
2022/01/07 10:56:02;;;;;;;8.98;4.78;;;2.60;99.90;;;;;;5093292;28;20027;-89
2022/01/07 10:58:28;;;;;;;8.50;4.22;;;2.60;99.90;;;;;;5104253;28;20027;-89
2022/01/07 11:00:54;;;;;;;11.75;4.25;;;2.60;99.90;;;;;;5112740;28;20031;-89
2022/01/07 11:03:20;;;;;;;11.38;4.88;;;2.60;99.90;;;;;;5095059;28;20038;-88
2022/01/07 11:05:45;;;;;;;10.75;4.25;;;2.60;99.90;;;;;;5086863;28;20066;-90
2022/01/07 11:08:15;;;;;;;12.82;4.10;;;2.60;99.90;;;;;;5095631;28;20491;-90
2022/01/07 11:10:41;;;;;;;9.38;5.20;;;2.60;99.90;;;;;;5113672;28;20057;-89
2022/01/07 11:13:10;;;;;;;9.27;5.13;;;2.60;99.90;;;;;;5096136;28;20035;-88
2022/01/07 11:15:37;;;;;;;13.45;5.57;;;2.60;99.90;;;;;;5095209;28;20152;-86
2022/01/07 11:18:03;;;;;;;15.77;6.30;;;2.60;99.90;;;;;;5113950;28;20402;-86
2022/01/07 11:20:29;;;;;;;12.23;6.00;;;2.60;99.90;;;;;;5095574;28;20047;-85
2022/01/07 11:22:55;;;;;;;8.73;5.20;;;2.60;99.90;;;;;;5109351;28;20028;-86
2022/01/07 11:25:31;;;;;;;10.07;5.00;;;2.60;99.90;;;;;;5105060;28;20085;-85
2022/01/07 11:27:59;;;;;;;14.07;5.03;;;2.60;99.90;;;;;;5113161;28;20020;-86
2022/01/07 11:30:28;;;;;;;7.10;3.50;;;2.60;99.90;;;;;;5113246;28;20028;-86
2022/01/07 11:32:56;;;;;;;5.05;3.40;;;2.60;99.90;;;;;;5113454;28;20028;-86
2022/01/07 11:35:22;;;;;;;6.85;4.00;;;2.70;99.90;;;;;;5106082;28;20391;-86
2022/01/07 11:38:00;;;;;;;7.50;3.97;;;2.60;99.90;;;;;;5106792;28;20077;-85
2022/01/07 11:40:29;;;;;;;8.02;5.45;;;2.70;99.90;;;;;;5111797;28;20031;-87
2022/01/07 11:42:58;;;;;;;14.82;6.28;;;2.70;99.90;;;;;;5108287;28;20127;-86
2022/01/07 11:45:33;;;;;;;11.13;5.57;;;2.70;99.90;;;;;;5112824;28;20024;-85
2022/01/07 11:48:12;;;;;;;7.63;4.70;;;2.70;99.90;;;;;;5093277;28;20127;-84
2022/01/07 11:50:55;;;;;;;11.98;7.07;;;2.80;99.90;;;;;;5100271;28;20023;-85
2022/01/07 11:53:25;;;;;;;8.65;5.28;;;2.80;99.90;;;;;;5112174;28;20403;-85
2022/01/07 11:55:57;;;;;;;10.15;5.07;;;2.80;99.90;;;;;;5112387;28;20081;-86
2022/01/07 11:58:37;;;;;;;9.35;5.40;;;2.80;99.90;;;;;;5111378;28;20043;-85
2022/01/07 12:01:04;;;;;;;9.82;5.05;;;2.80;99.90;;;;;;5112570;28;20030;-85
2022/01/07 12:03:46;;;;;;;7.40;5.22;;;2.80;99.90;;;;;;5112426;28;20012;-86
2022/01/07 12:06:17;;;;;;;5.85;4.10;;;2.80;99.90;;;;;;5094013;28;20050;-85
2022/01/07 12:11:29;;;;;;;9.43;4.85;;;2.80;99.90;;;;;;5109005;28;20039;-85
2022/01/07 12:13:56;;;;;;;3.95;3.42;;;2.80;99.90;;;;;;5093837;28;20039;-86
2022/01/07 12:16:23;;;;;;;7.05;3.45;;;2.80;99.90;;;;;;5094170;28;20444;-85
2022/01/07 12:18:49;;;;;;;6.57;4.13;;;2.80;99.90;;;;;;5112460;28;20059;-85
2022/01/07 12:21:14;;;;;;;6.70;3.63;;;2.80;99.90;;;;;;5094167;28;20086;-86
2022/01/07 12:23:41;;;;;;;9.07;3.88;;;2.80;99.90;;;;;;5110425;28;20052;-85
2022/01/07 12:26:07;;;;;;;4.28;3.38;;;2.90;99.90;;;;;;5094068;28;20495;-85
2022/01/07 12:28:39;;;;;;;3.88;2.70;;;2.90;99.90;;;;;;5092916;28;20075;-85
2022/01/07 12:31:10;;;;;;;8.13;3.60;;;2.90;99.90;;;;;;5111011;28;20031;-85
2022/01/07 12:33:52;;;;;;;5.57;3.15;;;2.90;99.90;;;;;;5112343;28;20374;-86
2022/01/07 12:36:54;;;;;;;6.30;3.63;;;2.90;99.90;;;;;;5112291;28;20031;-85
2022/01/07 12:39:25;;;;;;;6.63;3.92;;;2.90;99.90;;;;;;5114250;28;20032;-85
2022/01/07 12:41:53;;;;;;;5.75;2.97;;;3.00;99.90;;;;;;5092155;28;20028;-86
2022/01/07 12:44:19;;;;;;;4.07;3.50;;;2.90;99.90;;;;;;5107614;28;20027;-85
2022/01/07 12:46:51;;;;;;;4.90;3.15;;;2.90;99.90;;;;;;5109719;28;20486;-86
2022/01/07 12:49:20;;;;;;;6.35;3.25;;;3.00;99.90;;;;;;5106050;28;20032;-85
2022/01/07 12:52:00;;;;;;;6.10;3.35;;;3.00;99.90;;;;;;5112432;28;20525;-85
2022/01/07 12:54:26;;;;;;;4.05;3.13;;;3.10;99.90;;;;;;5112706;28;20034;-86
2022/01/07 12:56:55;;;;;;;6.13;3.53;;;3.10;99.90;;;;;;5112501;28;20031;-85
2022/01/07 12:59:25;;;;;;;8.85;3.38;;;3.10;99.90;;;;;;5112455;28;20027;-85
2022/01/07 13:01:51;;;;;;;4.13;3.00;;;3.20;99.90;;;;;;5112482;28;20468;-85
2022/01/07 13:04:20;;;;;;;5.82;3.20;;;3.20;99.90;;;;;;5091004;28;20026;-86
2022/01/07 13:06:56;;;;;;;5.95;3.28;;;3.20;99.90;;;;;;5112230;28;20483;-85